Airfield :
LOGIN :

Register | Disclaimer

   EN    FR    IT 

 










Legend :    VFR   Marginal VFR   IFR   Intensive IFR   Very Intensive IFR
Visi :
Ceiling :
>= 8 km
>= 3000ft
5 to 8 km
1000 to 3000 ft
1500m to 5 km
500 to 1000 ft
800 to 1500m
200 to 500 ft
< 800m
< 200 ft
Symbols :   Thunderstorms  Fog  Heavy snow  Heavy precipitations  Wind > 20 kt
SIGMETs :     Misc.  Thunderstorms  Icing  Turbulence  Mountain Waves  Volcanic Ashes






- Airport Elevation : 778 ft
- IATA code : BRQ


LKTB - Brno-Turany

CURRENT METAR :
  • 071630Z 31015KT 9999 SCT045 11/M00 Q1012 TEMPO 31015G25KT -SHRA SCT035TCU

EXPIRED METARs :
  • 071600Z 31013KT 9999 FEW039 11/M00 Q1011 TEMPO 31015G26KT
  • 071530Z 31018KT CAVOK 11/01 Q1011 TEMPO 32016G28KT
  • 071500Z 32022KT CAVOK 11/01 Q1010 TEMPO 32016G28KT
  • 071430Z 27013G25KT 240V330 CAVOK 11/02 Q1009 NOSIG
  • 071400Z 29016G26KT 9999 -SHRA FEW017 SCT046TCU 11/03 Q1009 NOSIG

TAF TAF LKTB
Valid from the 07 at 12:00 until the 08 at 18:00 UTC


071100Z 0712/0818 30008KT 9999 SCT040
TEMPO 0712/0718 31018G28KT 8000 SHRA SCT020TCU
BECMG 0720/0722 CAVOK
TEMPO 0810/0817 25014KT 9999 SCT035



MET'MAP, your aeronautical weather chart ! - Copyright ORBIFLY December 2007 - Disclaimer

ORBIFLY MET'MAP TEAM :

Programming & Development : Alexandra Zaïnal
Concept & original design : Baudouin d'Aumeries
Assistance for programming : Marc-Olivier Méhu
Technical & hardware support : Manuel Goepfert

Contact : metmap@orbifly.com




SOURCES & CREDITS :

   NOAA